createdAt,value
2022-11-07T00:00:11.617Z,10.78
2022-11-07T00:02:38.220Z,10.76
2022-11-07T00:05:05.708Z,10.79
2022-11-07T00:07:32.313Z,10.77
2022-11-07T00:09:58.801Z,10.76
2022-11-07T00:12:25.263Z,10.80
2022-11-07T00:14:51.731Z,10.81
2022-11-07T00:17:18.483Z,10.83
2022-11-07T00:19:45.104Z,10.82
2022-11-07T00:22:11.545Z,10.81
2022-11-07T00:24:37.978Z,10.78
2022-11-07T00:27:04.561Z,10.74
2022-11-07T00:29:31.079Z,10.75
2022-11-07T00:31:58.952Z,10.73
2022-11-07T00:34:25.388Z,10.70
2022-11-07T00:36:51.843Z,10.69
2022-11-07T00:39:18.283Z,10.70
2022-11-07T00:41:48.760Z,10.71
2022-11-07T00:44:15.823Z,10.71
2022-11-07T00:46:42.262Z,10.72
2022-11-07T00:49:08.764Z,10.73
2022-11-07T00:51:35.321Z,10.72
2022-11-07T00:54:03.712Z,10.69
2022-11-07T00:56:30.255Z,10.72
2022-11-07T00:58:58.266Z,10.73
2022-11-07T01:01:30.966Z,10.72
2022-11-07T01:04:16.275Z,10.70
2022-11-07T01:06:44.840Z,10.72
2022-11-07T01:09:13.857Z,10.68
2022-11-07T01:11:41.641Z,10.67
2022-11-07T01:14:08.699Z,10.71
2022-11-07T01:16:35.543Z,10.68
2022-11-07T01:19:03.499Z,10.66
2022-11-07T01:21:30.676Z,10.68
2022-11-07T01:23:57.474Z,10.67
2022-11-07T01:26:24.232Z,10.68
2022-11-07T01:28:50.695Z,10.70
2022-11-07T01:31:17.915Z,10.69
2022-11-07T01:33:45.032Z,10.70
2022-11-07T01:36:14.309Z,10.71
2022-11-07T01:38:43.385Z,10.70
2022-11-07T01:41:21.911Z,10.70
2022-11-07T01:44:01.133Z,10.72
2022-11-07T01:46:29.866Z,10.68
2022-11-07T01:49:01.850Z,10.70
2022-11-07T01:51:29.744Z,10.71
2022-11-07T01:53:56.715Z,10.69
2022-11-07T01:56:26.181Z,10.67
2022-11-07T01:58:56.024Z,10.68
2022-11-07T02:01:22.868Z,10.68
2022-11-07T02:03:51.326Z,10.66
2022-11-07T02:06:38.948Z,10.64
2022-11-07T02:09:05.615Z,10.61
2022-11-07T02:11:32.409Z,10.61
2022-11-07T02:13:58.867Z,10.61
2022-11-07T02:16:25.424Z,10.61
2022-11-07T02:18:51.953Z,10.60
2022-11-07T02:21:23.909Z,10.60
2022-11-07T02:24:08.792Z,10.63
2022-11-07T02:26:37.847Z,10.61
2022-11-07T02:29:08.830Z,10.61
2022-11-07T02:31:35.294Z,10.59
2022-11-07T02:34:01.716Z,10.53
2022-11-07T02:36:28.272Z,10.51
2022-11-07T02:38:58.687Z,10.49
2022-11-07T02:41:33.632Z,10.45
2022-11-07T02:44:06.572Z,10.43
2022-11-07T02:46:33.512Z,10.44
2022-11-07T02:49:01.557Z,10.46
2022-11-07T02:51:28.771Z,10.44
2022-11-07T02:53:55.274Z,10.44
2022-11-07T02:56:22.793Z,10.46
2022-11-07T02:58:49.345Z,10.46
2022-11-07T03:01:16.044Z,10.43
2022-11-07T03:03:44.370Z,10.40
2022-11-07T03:06:14.832Z,10.39
2022-11-07T03:08:41.816Z,10.41
2022-11-07T03:11:08.350Z,10.41
2022-11-07T03:13:35.352Z,10.42
2022-11-07T03:16:10.317Z,10.40
2022-11-07T03:18:37.558Z,10.42
2022-11-07T03:21:05.105Z,10.42
2022-11-07T03:23:33.232Z,10.45
2022-11-07T03:25:59.670Z,10.47
2022-11-07T03:28:26.123Z,10.47
2022-11-07T03:30:52.764Z,10.49
2022-11-07T03:33:19.228Z,10.47
2022-11-07T03:35:45.849Z,10.47
2022-11-07T03:38:12.335Z,10.46
2022-11-07T03:40:39.630Z,10.47
2022-11-07T03:43:06.137Z,10.49
2022-11-07T03:45:32.585Z,10.51
2022-11-07T03:47:59.038Z,10.52
2022-11-07T03:50:25.469Z,10.51
2022-11-07T03:52:52.000Z,10.50
2022-11-07T03:55:18.572Z,10.46
2022-11-07T03:57:45.582Z,10.46
2022-11-07T04:00:13.516Z,10.49
2022-11-07T04:02:40.798Z,10.47
2022-11-07T04:05:07.727Z,10.48
2022-11-07T04:07:34.163Z,10.46
2022-11-07T04:10:00.642Z,10.45
2022-11-07T04:12:45.785Z,10.44
2022-11-07T04:15:30.749Z,10.43
2022-11-07T04:17:57.245Z,10.46
2022-11-07T04:20:23.712Z,10.46
2022-11-07T04:22:50.184Z,10.47
2022-11-07T04:25:16.726Z,10.47
2022-11-07T04:27:43.211Z,10.47
2022-11-07T04:30:29.948Z,10.50
2022-11-07T04:32:58.782Z,10.49
2022-11-07T04:35:29.351Z,10.52
2022-11-07T04:37:55.882Z,10.52
2022-11-07T04:40:22.718Z,10.57
2022-11-07T04:42:49.763Z,10.55
2022-11-07T04:45:17.373Z,10.59
2022-11-07T04:47:44.175Z,10.60
2022-11-07T04:50:13.399Z,10.65
2022-11-07T04:52:40.150Z,10.66
2022-11-07T04:55:09.324Z,10.66
2022-11-07T04:57:35.792Z,10.67
2022-11-07T05:00:04.056Z,10.69
2022-11-07T05:02:30.576Z,10.67
2022-11-07T05:04:57.105Z,10.71
2022-11-07T05:07:23.540Z,10.68
2022-11-07T05:09:49.945Z,10.68
2022-11-07T05:12:16.499Z,10.72
2022-11-07T05:14:43.001Z,10.71
2022-11-07T05:17:15.099Z,10.74
2022-11-07T05:19:45.121Z,10.79
2022-11-07T05:22:30.616Z,10.78
2022-11-07T05:24:57.157Z,10.82
2022-11-07T05:27:24.842Z,10.84
2022-11-07T05:29:51.750Z,10.88
2022-11-07T05:32:18.672Z,10.90
2022-11-07T05:34:45.171Z,10.92
2022-11-07T05:37:13.201Z,10.90
2022-11-07T05:39:39.743Z,10.93
2022-11-07T05:42:06.296Z,10.93
2022-11-07T05:44:33.298Z,10.95
2022-11-07T05:47:00.348Z,10.96
2022-11-07T05:49:26.987Z,11.00
2022-11-07T05:51:53.532Z,11.03
2022-11-07T05:54:20.330Z,11.07
2022-11-07T05:56:46.827Z,11.08
2022-11-07T05:59:13.798Z,11.10
2022-11-07T06:01:40.430Z,11.09
2022-11-07T06:04:07.815Z,11.10
2022-11-07T06:06:34.696Z,11.09
2022-11-07T06:09:01.190Z,11.07
2022-11-07T06:11:27.616Z,11.07
2022-11-07T06:13:54.732Z,11.08
2022-11-07T06:16:21.218Z,11.08
2022-11-07T06:18:47.948Z,11.08
2022-11-07T06:21:14.492Z,11.09
2022-11-07T06:23:41.031Z,11.12
2022-11-07T06:26:07.495Z,11.14
2022-11-07T06:28:33.977Z,11.14
2022-11-07T06:31:02.016Z,11.17
2022-11-07T06:33:30.044Z,11.17
2022-11-07T06:36:03.782Z,11.17
2022-11-07T06:38:30.248Z,11.19
2022-11-07T06:40:56.661Z,11.19
2022-11-07T06:43:23.087Z,11.22
2022-11-07T06:45:49.640Z,11.24
2022-11-07T06:48:16.170Z,11.25
2022-11-07T06:50:42.707Z,11.26
2022-11-07T06:53:11.862Z,11.30
2022-11-07T06:55:39.218Z,11.30
2022-11-07T06:58:05.997Z,11.32
2022-11-07T07:00:36.161Z,11.36
2022-11-07T07:03:02.810Z,11.40
2022-11-07T07:05:29.366Z,11.38
2022-11-07T07:07:56.111Z,11.40
2022-11-07T07:10:25.002Z,11.41
2022-11-07T07:12:52.568Z,11.43
2022-11-07T07:15:19.140Z,11.45
2022-11-07T07:17:45.613Z,11.49
2022-11-07T07:20:12.336Z,11.49
2022-11-07T07:22:38.849Z,11.50
2022-11-07T07:25:05.740Z,11.51
2022-11-07T07:27:32.269Z,11.56
2022-11-07T07:29:58.686Z,11.61
2022-11-07T07:32:25.246Z,11.62
2022-11-07T07:34:52.270Z,11.65
2022-11-07T07:37:18.938Z,11.68
2022-11-07T07:39:45.434Z,11.70
2022-11-07T07:42:11.906Z,11.74
2022-11-07T07:44:38.671Z,11.77
2022-11-07T07:47:10.803Z,11.77
2022-11-07T07:49:37.989Z,11.82
2022-11-07T07:52:04.765Z,11.83
2022-11-07T07:54:31.185Z,11.86
2022-11-07T07:56:57.640Z,11.87
2022-11-07T07:59:24.084Z,11.93
2022-11-07T08:01:56.196Z,11.95
2022-11-07T08:04:22.871Z,11.97
2022-11-07T08:06:49.279Z,12.01
2022-11-07T08:09:15.738Z,12.04
2022-11-07T08:11:42.233Z,12.05
2022-11-07T08:14:08.725Z,12.09
2022-11-07T08:16:35.157Z,12.11
2022-11-07T08:19:01.597Z,12.13
2022-11-07T08:21:28.011Z,12.17
2022-11-07T08:23:54.904Z,12.20
2022-11-07T08:26:21.429Z,12.23
2022-11-07T08:28:47.872Z,12.23
2022-11-07T08:31:14.735Z,12.30
2022-11-07T08:33:41.237Z,12.37
2022-11-07T08:36:08.031Z,12.41
2022-11-07T08:38:36.139Z,12.44
2022-11-07T08:41:02.871Z,12.49
2022-11-07T08:43:29.582Z,12.46
2022-11-07T08:45:56.244Z,12.48
2022-11-07T08:48:23.872Z,12.51
2022-11-07T08:50:57.620Z,12.52
2022-11-07T08:53:25.900Z,12.53
2022-11-07T08:55:52.716Z,12.59
2022-11-07T08:58:19.540Z,12.67
2022-11-07T09:00:46.299Z,12.68
2022-11-07T09:06:00.442Z,12.76
2022-11-07T09:08:26.914Z,12.69
2022-11-07T09:10:53.498Z,12.69
2022-11-07T09:13:22.770Z,12.69
2022-11-07T09:15:51.543Z,12.70
2022-11-07T09:18:19.020Z,12.71
2022-11-07T09:20:45.631Z,12.76
2022-11-07T09:23:12.108Z,12.74
2022-11-07T09:25:38.608Z,12.78
2022-11-07T09:28:05.463Z,12.79
2022-11-07T09:30:32.619Z,12.77
2022-11-07T09:32:59.956Z,12.75
2022-11-07T09:35:27.150Z,12.73
2022-11-07T09:37:53.784Z,12.74
2022-11-07T09:40:20.172Z,12.76
2022-11-07T09:43:09.349Z,12.77
2022-11-07T09:46:00.662Z,12.79
2022-11-07T09:48:33.872Z,12.85
2022-11-07T09:51:00.489Z,12.88
2022-11-07T09:53:42.231Z,12.91
2022-11-07T09:56:12.641Z,12.92
2022-11-07T09:58:51.480Z,12.95
2022-11-07T10:01:20.506Z,12.97
2022-11-07T10:06:37.675Z,13.04
2022-11-07T10:09:20.809Z,13.10
2022-11-07T10:12:10.865Z,13.13
2022-11-07T10:14:53.179Z,13.13
2022-11-07T10:18:02.189Z,13.15
2022-11-07T10:20:31.558Z,13.15
2022-11-07T10:23:04.689Z,13.09
2022-11-07T10:25:51.608Z,13.09
2022-11-07T10:28:20.532Z,13.08
2022-11-07T10:30:55.620Z,13.11
2022-11-07T10:33:39.782Z,13.14
2022-11-07T10:36:19.090Z,13.16
2022-11-07T10:38:45.750Z,13.14
2022-11-07T10:41:15.570Z,13.20
2022-11-07T10:43:45.768Z,13.21
2022-11-07T10:46:19.234Z,13.19
2022-11-07T10:48:53.640Z,13.22
2022-11-07T10:51:20.240Z,13.31
2022-11-07T10:53:46.693Z,13.32
2022-11-07T10:56:13.793Z,13.38
2022-11-07T10:58:44.645Z,13.44
2022-11-07T11:01:12.064Z,13.59
2022-11-07T11:03:45.671Z,13.67
2022-11-07T11:06:18.349Z,13.68
2022-11-07T11:08:46.632Z,13.69
2022-11-07T11:11:19.050Z,13.71
2022-11-07T11:13:45.795Z,13.73
2022-11-07T11:16:30.632Z,13.72
2022-11-07T11:19:01.543Z,13.72
2022-11-07T11:21:45.797Z,13.67
2022-11-07T11:24:40.692Z,13.61
2022-11-07T11:27:16.282Z,13.57
2022-11-07T11:29:45.280Z,13.58
2022-11-07T11:32:21.217Z,13.57
2022-11-07T11:35:04.734Z,13.64
2022-11-07T11:37:34.564Z,13.63
2022-11-07T11:40:04.161Z,13.63
2022-11-07T11:42:42.123Z,13.60
2022-11-07T11:45:28.555Z,13.61
2022-11-07T11:48:32.588Z,13.62
2022-11-07T11:51:07.185Z,13.64
2022-11-07T11:53:33.968Z,13.64
2022-11-07T11:56:00.347Z,13.63
2022-11-07T11:58:54.417Z,13.64
2022-11-07T12:01:44.160Z,13.62
2022-11-07T12:04:55.288Z,13.64
2022-11-07T12:07:46.503Z,13.63
2022-11-07T12:10:28.586Z,13.63
2022-11-07T12:13:16.586Z,13.69
2022-11-07T12:16:20.922Z,13.71
2022-11-07T12:18:47.328Z,13.78
2022-11-07T12:21:30.682Z,13.79
2022-11-07T12:24:09.994Z,13.77
2022-11-07T12:26:50.337Z,13.73
2022-11-07T12:29:54.728Z,13.76
2022-11-07T12:32:34.124Z,13.73
2022-11-07T12:35:56.281Z,13.73
2022-11-07T12:38:54.258Z,13.74
2022-11-07T12:41:38.081Z,13.78
2022-11-07T12:44:13.860Z,13.85
2022-11-07T12:46:59.366Z,13.90
2022-11-07T12:49:31.455Z,13.94
2022-11-07T12:52:27.132Z,13.97
2022-11-07T12:55:04.332Z,13.99
2022-11-07T12:57:33.376Z,13.99
2022-11-07T13:00:18.445Z,14.07
2022-11-07T13:03:03.648Z,14.09
2022-11-07T13:06:07.749Z,14.12
2022-11-07T13:08:46.683Z,14.15
2022-11-07T13:11:51.401Z,14.19
2022-11-07T13:14:33.262Z,14.19
2022-11-07T13:17:20.005Z,14.17
2022-11-07T13:19:59.426Z,14.16
2022-11-07T13:22:40.805Z,14.16
2022-11-07T13:25:17.279Z,14.04
2022-11-07T13:27:59.211Z,13.97
2022-11-07T13:30:36.956Z,13.93
2022-11-07T13:33:04.460Z,13.89
2022-11-07T13:35:32.360Z,13.85
2022-11-07T13:38:20.547Z,13.76
2022-11-07T13:40:51.500Z,13.73
2022-11-07T13:43:27.053Z,13.70
2022-11-07T13:46:04.145Z,13.68
2022-11-07T13:48:42.667Z,13.69
2022-11-07T13:51:15.983Z,13.73
2022-11-07T13:53:47.087Z,13.76
2022-11-07T13:56:55.508Z,13.77
2022-11-07T13:59:36.794Z,13.80
2022-11-07T14:02:04.472Z,13.80
2022-11-07T14:04:39.871Z,13.81
2022-11-07T14:07:11.637Z,13.82
2022-11-07T14:09:39.389Z,13.87
2022-11-07T14:12:05.942Z,13.85
2022-11-07T14:14:32.462Z,13.87
2022-11-07T14:17:00.588Z,13.91
2022-11-07T14:19:27.861Z,13.91
2022-11-07T14:21:56.011Z,13.94
2022-11-07T14:24:28.346Z,13.96
2022-11-07T14:27:04.183Z,13.98
2022-11-07T14:29:31.248Z,14.00
2022-11-07T14:32:00.264Z,14.02
2022-11-07T14:34:27.055Z,14.03
2022-11-07T14:36:59.548Z,14.02
2022-11-07T14:39:31.593Z,14.02
2022-11-07T14:42:00.442Z,14.05
2022-11-07T14:44:56.648Z,14.03
2022-11-07T14:47:25.388Z,14.03
2022-11-07T14:49:53.131Z,14.00
2022-11-07T14:52:19.550Z,13.98
2022-11-07T14:54:47.451Z,13.94
2022-11-07T14:57:14.738Z,13.90
2022-11-07T14:59:41.914Z,13.88
2022-11-07T15:02:08.386Z,13.87
2022-11-07T15:04:34.899Z,13.87
2022-11-07T15:07:10.522Z,13.85
2022-11-07T15:09:38.196Z,13.82
2022-11-07T15:12:15.883Z,13.80
2022-11-07T15:14:42.489Z,13.79
2022-11-07T15:17:24.920Z,13.75
2022-11-07T15:19:59.287Z,13.71
2022-11-07T15:22:45.956Z,13.70
2022-11-07T15:25:26.052Z,13.68
2022-11-07T15:27:52.818Z,13.64
2022-11-07T15:30:25.436Z,13.61
2022-11-07T15:32:51.928Z,13.60
2022-11-07T15:35:43.035Z,13.57
2022-11-07T15:38:07.224Z,13.51
2022-11-07T15:40:33.760Z,13.48
2022-11-07T15:43:00.185Z,13.45
2022-11-07T15:45:26.726Z,13.41
2022-11-07T15:47:53.156Z,13.38
2022-11-07T15:50:22.521Z,13.36
2022-11-07T15:52:49.621Z,13.33
2022-11-07T15:55:18.744Z,13.31
2022-11-07T15:57:47.874Z,13.27
2022-11-07T16:00:15.727Z,13.26
2022-11-07T16:02:42.697Z,13.22
2022-11-07T16:05:09.642Z,13.21
2022-11-07T16:07:36.264Z,13.18
2022-11-07T16:10:04.350Z,13.16
2022-11-07T16:12:30.795Z,13.15
2022-11-07T16:14:59.288Z,13.14
2022-11-07T16:17:26.210Z,13.12
2022-11-07T16:19:55.201Z,13.12
2022-11-07T16:22:23.911Z,13.10
2022-11-07T16:24:50.324Z,13.10
2022-11-07T16:27:17.957Z,13.06
2022-11-07T16:29:44.465Z,13.07
2022-11-07T16:32:16.574Z,13.06
2022-11-07T16:34:44.586Z,13.03
2022-11-07T16:37:11.879Z,13.04
2022-11-07T16:39:38.326Z,13.06
2022-11-07T16:42:04.870Z,13.04
2022-11-07T16:44:31.343Z,13.04
2022-11-07T16:46:57.986Z,13.02
2022-11-07T16:49:31.459Z,13.05
2022-11-07T16:51:58.432Z,13.05
2022-11-07T16:54:25.431Z,13.07
2022-11-07T16:56:52.902Z,13.05
2022-11-07T16:59:22.332Z,13.06
2022-11-07T17:01:50.733Z,13.06
2022-11-07T17:04:17.364Z,13.07
2022-11-07T17:06:48.866Z,13.08
2022-11-07T17:09:16.839Z,13.07
2022-11-07T17:11:44.150Z,13.09
2022-11-07T17:14:10.710Z,13.09
2022-11-07T17:16:37.511Z,13.10
2022-11-07T17:19:05.482Z,13.11
2022-11-07T17:21:36.260Z,13.13
2022-11-07T17:24:04.017Z,13.15
2022-11-07T17:26:34.553Z,13.16
2022-11-07T17:29:02.089Z,13.19
2022-11-07T17:31:28.585Z,13.21
2022-11-07T17:33:55.067Z,13.21
2022-11-07T17:36:25.340Z,13.22
2022-11-07T17:38:52.903Z,13.23
2022-11-07T17:41:19.757Z,13.25
2022-11-07T17:43:47.219Z,13.25
2022-11-07T17:46:22.198Z,13.29
2022-11-07T17:48:48.609Z,13.30
2022-11-07T17:51:15.195Z,13.29
2022-11-07T17:53:43.426Z,13.32
2022-11-07T17:56:17.201Z,13.37
2022-11-07T17:58:45.737Z,13.38
2022-11-07T18:01:23.806Z,13.38
2022-11-07T18:03:52.140Z,13.39
2022-11-07T18:06:23.061Z,13.40
2022-11-07T18:08:52.515Z,13.39
2022-11-07T18:11:20.007Z,13.45
2022-11-07T18:13:49.234Z,13.49
2022-11-07T18:16:19.945Z,13.55
2022-11-07T18:18:46.887Z,13.60
2022-11-07T18:21:13.904Z,13.59
2022-11-07T18:23:41.568Z,13.63
2022-11-07T18:26:11.580Z,13.61
2022-11-07T18:28:40.252Z,13.65
2022-11-07T18:31:08.659Z,13.65
2022-11-07T18:33:35.614Z,13.65
2022-11-07T18:36:05.284Z,13.64
2022-11-07T18:38:31.867Z,13.57
2022-11-07T18:41:06.810Z,13.54
2022-11-07T18:43:34.777Z,13.52
2022-11-07T18:46:01.270Z,13.50
2022-11-07T18:48:30.206Z,13.50
2022-11-07T18:51:00.569Z,13.50
2022-11-07T18:53:30.906Z,13.48
2022-11-07T18:55:58.624Z,13.47
2022-11-07T18:58:27.229Z,13.42
2022-11-07T19:00:55.077Z,13.37
2022-11-07T19:03:22.405Z,13.35
2022-11-07T19:05:49.916Z,13.33
2022-11-07T19:08:16.625Z,13.25
2022-11-07T19:10:43.288Z,13.24
2022-11-07T19:13:09.782Z,13.22
2022-11-07T19:15:39.527Z,13.19
2022-11-07T19:18:06.071Z,13.19
2022-11-07T19:20:32.549Z,13.16
2022-11-07T19:22:59.144Z,13.17
2022-11-07T19:25:25.585Z,13.15
2022-11-07T19:27:52.056Z,13.16
2022-11-07T19:30:18.592Z,13.20
2022-11-07T19:32:45.097Z,13.20
2022-11-07T19:35:11.595Z,13.17
2022-11-07T19:37:38.121Z,13.17
2022-11-07T19:40:06.010Z,13.12
2022-11-07T19:42:32.585Z,13.13
2022-11-07T19:44:59.012Z,13.14
2022-11-07T19:47:25.476Z,13.16
2022-11-07T19:49:52.073Z,13.24
2022-11-07T19:52:18.579Z,13.23
2022-11-07T19:54:45.558Z,13.24
2022-11-07T19:57:11.986Z,13.23
2022-11-07T19:59:38.447Z,13.21
2022-11-07T20:02:31.009Z,13.17
2022-11-07T20:04:52.266Z,13.15
2022-11-07T20:07:19.323Z,13.10
2022-11-07T20:09:45.848Z,13.08
2022-11-07T20:12:12.291Z,13.08
2022-11-07T20:14:39.007Z,13.07
2022-11-07T20:17:05.534Z,13.06
2022-11-07T20:19:33.891Z,13.05
2022-11-07T20:22:03.681Z,13.06
2022-11-07T20:24:30.194Z,13.05
2022-11-07T20:26:56.697Z,13.05
2022-11-07T20:29:23.148Z,13.05
2022-11-07T20:31:50.035Z,13.06
2022-11-07T20:34:19.505Z,13.08
2022-11-07T20:36:48.078Z,13.11
2022-11-07T20:39:15.137Z,13.17
2022-11-07T20:41:42.504Z,13.18
2022-11-07T20:44:12.820Z,13.20
2022-11-07T20:46:42.122Z,13.20
2022-11-07T20:49:11.985Z,13.20
2022-11-07T20:51:38.851Z,13.23
2022-11-07T20:54:05.664Z,13.25
2022-11-07T20:56:33.185Z,13.25
2022-11-07T20:58:59.824Z,13.26
2022-11-07T21:01:37.982Z,13.24
2022-11-07T21:04:07.126Z,13.28
2022-11-07T21:06:34.308Z,13.28
2022-11-07T21:09:00.891Z,13.30
2022-11-07T21:11:28.948Z,13.32
2022-11-07T21:13:55.442Z,13.34
2022-11-07T21:16:22.344Z,13.36
2022-11-07T21:18:50.358Z,13.37
2022-11-07T21:21:20.344Z,13.38
2022-11-07T21:23:48.598Z,13.36
2022-11-07T21:26:18.175Z,13.38
2022-11-07T21:28:44.769Z,13.37
2022-11-07T21:31:18.594Z,13.39
2022-11-07T21:33:46.169Z,13.39
2022-11-07T21:36:16.325Z,13.43
2022-11-07T21:38:43.118Z,13.40
2022-11-07T21:41:10.770Z,13.41
2022-11-07T21:43:37.601Z,13.40
2022-11-07T21:46:12.484Z,13.38
2022-11-07T21:48:39.631Z,13.39
2022-11-07T21:51:16.516Z,13.36
2022-11-07T21:53:43.217Z,13.36
2022-11-07T21:56:18.255Z,13.35
2022-11-07T21:58:45.135Z,13.34
2022-11-07T22:01:11.674Z,13.32
2022-11-07T22:04:04.810Z,13.31
2022-11-07T22:06:24.754Z,13.32
2022-11-07T22:08:51.674Z,13.34
2022-11-07T22:11:18.605Z,13.37
2022-11-07T22:13:45.261Z,13.35
2022-11-07T22:16:14.437Z,13.36
2022-11-07T22:18:41.643Z,13.35
2022-11-07T22:21:10.242Z,13.35
2022-11-07T22:23:37.936Z,13.38
2022-11-07T22:26:14.865Z,13.37
2022-11-07T22:28:45.751Z,13.39
2022-11-07T22:31:16.129Z,13.39
2022-11-07T22:33:42.914Z,13.41
2022-11-07T22:36:11.368Z,13.41
2022-11-07T22:38:39.046Z,13.41
2022-11-07T22:41:12.506Z,13.40
2022-11-07T22:43:39.075Z,13.40
2022-11-07T22:46:08.177Z,13.36
2022-11-07T22:48:35.625Z,13.38
2022-11-07T22:51:07.018Z,13.37
2022-11-07T22:53:34.339Z,13.36
2022-11-07T22:56:26.977Z,13.37
2022-11-07T22:58:53.687Z,13.36
2022-11-07T23:01:23.135Z,13.37
2022-11-07T23:03:51.001Z,13.36
2022-11-07T23:06:18.897Z,13.36
2022-11-07T23:08:46.135Z,13.36
2022-11-07T23:14:14.039Z,13.32
2022-11-07T23:16:44.829Z,13.31
2022-11-07T23:19:13.748Z,13.27
2022-11-07T23:21:40.537Z,13.23
2022-11-07T23:24:07.532Z,13.20
2022-11-07T23:26:34.876Z,13.14
2022-11-07T23:29:10.156Z,13.07
2022-11-07T23:31:38.758Z,13.03
2022-11-07T23:34:05.214Z,13.00
2022-11-07T23:36:31.640Z,12.93
2022-11-07T23:39:04.652Z,12.89
2022-11-07T23:41:31.380Z,12.81
2022-11-07T23:43:58.890Z,12.75
2022-11-07T23:46:43.850Z,12.71
2022-11-07T23:49:28.814Z,12.66
2022-11-07T23:51:55.687Z,12.61
2022-11-07T23:54:40.711Z,12.57
2022-11-07T23:57:07.201Z,12.51
2022-11-07T23:59:53.889Z,12.46
